• Join FlightAware (Why Join?)
  • Login
  • US Flag 
04:52AM EDT


 

Airport Tracker/Info


-or-


 

Live Flight TrackerFlight Track Log ✈ N50LD ✈ 13-May-2013 ✈ KEYE - KJVL

Flight Track Log - Related Links

Times and Time Zones

All times are in EDT time to prevent confusion due to time zone crossing. See the N50LD flight status page for this flight to view local times or setup timezone preferences in your user account.

Time Position Orientation Groundspeed Altitude Reporting Facility
EDT Latitude Longitude Course Direction KTS MPH feet Rate Location/Type
03:10PM 39.8500 -86.2833 21° North 162 186 1,200  Level Indianapolis TRACON
03:10PM 39.8833 -86.2667 21° North 206 237 3,000 1,500 Climbing Indianapolis TRACON
03:11PM 39.8981 -86.2811 323° Northwest 207 238 3,000 1,620 Level Chicago Center
03:12PM 39.9411 -86.3217 324° Northwest 192 221 5,200 3,180 Climbing Chicago Center
03:13PM 39.9939 -86.3639 328° Northwest 211 243 9,600 3,960 Climbing Chicago Center
03:14PM 40.0506 -86.4206 323° Northwest 213 245 13,500 3,420 Climbing Chicago Center
03:15PM 40.0967 -86.4692 321° Northwest 214 246 16,700 2,820 Climbing Chicago Center
03:16PM 40.1453 -86.5147 324° Northwest 214 246 19,400 2,340 Climbing Chicago Center
03:17PM 40.1928 -86.5622 323° Northwest 215 247 21,600 1,200 Climbing Chicago Center
03:18PM 40.2500 -86.6161 324° Northwest 252 290 22,000 180 Climbing Chicago Center
03:19PM 40.3247 -86.6906 323° Northwest 281 323 22,000  Level Chicago Center
03:20PM 40.3892 -86.7528 324° Northwest 286 329 22,000  Level Chicago Center
03:21PM 40.4536 -86.8158 323° Northwest 289 333 22,000  Level Chicago Center
03:22PM 40.5183 -86.8797 323° Northwest 290 334 22,000  Level Chicago Center
03:23PM 40.5833 -86.9442 323° Northwest 293 337 22,000  Level Chicago Center
03:24PM 40.6608 -87.0211 323° Northwest 291 335 22,000  Level Chicago Center
03:25PM 40.7228 -87.0842 322° Northwest 290 334 22,000  Level Chicago Center
03:26PM 40.7875 -87.1472 324° Northwest 290 334 22,000  Level Chicago Center
03:27PM 40.8506 -87.2125 322° Northwest 288 331 22,000  Level Chicago Center
03:28PM 40.9283 -87.2881 324° Northwest 289 333 22,000  Level Chicago Center
03:29PM 40.9933 -87.3514 324° Northwest 290 334 22,000  Level Chicago Center
03:30PM 41.0581 -87.4158 323° Northwest 291 335 22,000  Level Chicago Center
03:31PM 41.1219 -87.4822 322° Northwest 292 336 22,000  Level Chicago Center
03:32PM 41.1864 -87.5472 323° Northwest 293 337 22,000  Level Chicago Center
03:33PM 41.2642 -87.6275 322° Northwest 296 341 22,000  Level Chicago Center
03:35PM 41.3300 -87.6936 323° Northwest 298 343 22,000  Level Chicago Center
03:36PM 41.3950 -87.7608 322° Northwest 300 345 22,000  Level Chicago Center
03:37PM 41.4603 -87.8261 323° Northwest 298 343 22,000  Level Chicago Center
03:38PM 41.5242 -87.8931 322° Northwest 298 343 22,000  Level Chicago Center
03:39PM 41.6017 -87.9714 323° Northwest 297 342 22,000  Level Chicago Center
03:40PM 41.6667 -88.0381 323° Northwest 299 344 22,000  Level Chicago Center
03:41PM 41.7317 -88.1056 322° Northwest 298 343 22,000  Level Chicago Center
03:42PM 41.7981 -88.1733 323° Northwest 302 348 22,000 -300 Level Chicago Center
03:44PM 41.8633 -88.3936 292° West 336 387 21,100 -720 Descending Chicago Center
03:45PM 41.8486 -88.5253 262° West 357 411 19,900 -1,320 Descending Chicago Center
03:46PM 41.8283 -88.6517 258° West 356 410 18,400 -1,500 Descending Chicago Center
03:47PM 41.8114 -88.7956 261° West 335 386 16,900 -1,440 Descending Chicago Center
03:48PM 41.8689 -88.8636 319° Northwest 290 334 15,500 -1,500 Descending Chicago Center
03:49PM 41.9475 -88.8844 349° North 284 327 13,800 -1,680 Descending Chicago Center
03:50PM 42.0289 -88.9044 350° North 296 341 12,100 -1,740 Descending Chicago Center
03:51PM 42.1097 -88.9253 349° North 291 335 10,300 -1,680 Descending Chicago Center
03:52PM 42.1875 -88.9408 352° North 283 326 8,700 -1,680 Descending Chicago Center
03:53PM 42.2636 -88.9606 349° North 240 276 6,900 -1,620 Descending Chicago Center
03:54PM 42.3289 -88.9731 352° North 235 270 5,400 -1,500 Descending Chicago Center
03:55PM 42.3956 -88.9911 349° North 240 276 3,900 -1,260 Descending Chicago Center
03:56PM 42.4631 -89.0008 354° North 244 281 2,900 -780 Descending Chicago Center
03:57PM 42.5225 -89.0039 358° North 230 265 2,300 -540 Descending Chicago Center
03:58PM 42.5806 -89.0083 357° North 208 239 1,800 -540 Descending Chicago Center
04:00PM 42.6167 -89.0333 348° North  Level FlightAware Approximate
04:07PM 42.6203 -89.0416 348° North  Level Estimated
04:08PM 42.6167 -89.0333 348° North  Level FlightAware Approximate